MAL weather

Malone Dufort Airport
Malone, New York, United States

Public forecast

Using degrees Fahrenheit for public forecast. Weather courtesy of forecast.io.

Closest aviation weather report (METAR) to Malone Dufort Airport

Closest report is Massena International Richards Field, 22.5 nm (41.7 km) WNW. Retrieved 2020/05/26 08:53 UTC (55 minutes ago):

KMSS 260853Z AUTO 00000KT 10SM CLR 13/12 A3010 RMK AO2 SLP192 T01330122 53003

Closest aviation forecast (TAF) to Malone Dufort Airport

Closest forecast is Massena International Richards Field, 22.5 nm (41.7 km) WNW. Retrieved 2020/05/26 06:39 UTC (3 hours ago):

TAF KMSS 260535Z 2606/2706 VRB03KT P6SM BCFG FEW002 SCT050 TEMPO 2606/2608 1 1/2SM BR FEW002 FM260800 VRB03KT 5SM BR BCFG SCT002 TEMPO 2608/2611 2SM BR BKN002 FM261100 22006KT P6SM SCT180